Akane — H3UD — position and weather

sailwx.info

Track history (hours):
 
Tides and Currents Weather Stations Pressure Air Temp Water Temp Dewpoint Dewpoint Depression Visibility Wind Speed Wind Dir Waves Ship Positions

Akane

Last reported at 2017-Sep-19 06:21 UTC. Time now 2017-Oct-18 13:24 UTC.
Position S 05°24' E 112°47'.
Warning: this ship's position is 29 days out of date.

Length 180 m; draft 9.5 m.

Type: Ship. MMSI: 353172000.

Date/timePositionNaut miles runAvg speedWind from/ knotsBaromVisibWave heightAir tempDewpointWater temp
2017-Sep-19 06:21S 05°24' E 112°47'5513.6
2017-Sep-19 02:21S 05°06' E 111°55'1313.8
2017-Sep-19 01:24S 05°01' E 111°43'59612.1
2017-Sep-17 00:18N 01°14' E 103°60'412.7
2017-Sep-17 00:00N 01°13' E 103°56'612.6
2017-Sep-16 23:30N 01°11' E 103°50'612.1
2017-Sep-16 23:00N 01°07' E 103°45'611.4
2017-Sep-16 22:30N 01°04' E 103°41'5 9.7
2017-Sep-16 22:00N 01°05' E 103°36'5 9.6
2017-Sep-16 21:30N 01°08' E 103°33'5 8.6
2017-Sep-16 20:56N 01°11' E 103°36'3 7.3
2017-Sep-16 20:30N 01°12' E 103°39'3 6.3
2017-Sep-16 20:00N 01°14' E 103°42'0 0.6
2017-Sep-16 19:22N 01°14' E 103°41'0 0.0
2017-Sep-16 18:58N 01°14' E 103°41'0 0.0
2017-Sep-16 18:28N 01°14' E 103°41'0 0.0
2017-Sep-16 17:55N 01°14' E 103°41'0 0.0
2017-Sep-16 17:28N 01°14' E 103°41'0 0.0
2017-Sep-16 16:58N 01°14' E 103°41'0 0.0
2017-Sep-16 16:28N 01°14' E 103°41'0 0.0
2017-Sep-16 15:58N 01°14' E 103°41'0 0.0
2017-Sep-16 15:28N 01°14' E 103°41'0 0.1
2017-Sep-16 14:58N 01°14' E 103°42'0 0.1
2017-Sep-16 14:22N 01°14' E 103°41'0 0.0
2017-Sep-16 13:58N 01°14' E 103°41'0 0.0
2017-Sep-16 13:22N 01°14' E 103°41'0 0.0
2017-Sep-16 12:55N 01°14' E 103°41'0 0.0
2017-Sep-16 12:16N 01°14' E 103°41'0 0.0
2017-Sep-16 11:52N 01°14' E 103°41'0 0.0
2017-Sep-16 11:28N 01°14' E 103°41'0 0.0
2017-Sep-16 10:58N 01°14' E 103°41'0 0.0
2017-Sep-16 10:25N 01°14' E 103°41'0 0.1
2017-Sep-16 09:55N 01°14' E 103°42'0 0.1
2017-Sep-16 09:25N 01°14' E 103°41'0 0.0
2017-Sep-16 08:58N 01°14' E 103°41'0 0.0
2017-Sep-16 08:25N 01°14' E 103°41'0 0.0
2017-Sep-16 07:58N 01°14' E 103°41'0 0.0
2017-Sep-16 07:28N 01°14' E 103°41'0 0.0
2017-Sep-16 06:49N 01°14' E 103°41'0 0.1
2017-Sep-16 06:25N 01°14' E 103°42'0 0.1
2017-Sep-16 05:58N 01°14' E 103°41'0 0.0
2017-Sep-16 05:28N 01°14' E 103°41'0 0.0
2017-Sep-16 04:55N 01°14' E 103°41'0 0.0
2017-Sep-16 04:25N 01°14' E 103°41'0 0.1
2017-Sep-16 03:52N 01°14' E 103°42'0 0.2
2017-Sep-16 03:28N 01°14' E 103°41'0 0.0
2017-Sep-16 02:58N 01°14' E 103°41'0 0.0
2017-Sep-16 02:25N 01°14' E 103°41'0 0.1
2017-Sep-16 01:58N 01°14' E 103°42'0 0.0
2017-Sep-16 01:19N 01°14' E 103°42'0 0.1
2017-Sep-16 00:49N 01°14' E 103°41'0 0.1
2017-Sep-16 00:22N 01°14' E 103°42'0 0.2
2017-Sep-15 23:58N 01°14' E 103°41'0 0.0
2017-Sep-15 23:25N 01°14' E 103°41'0 0.0
2017-Sep-15 22:52N 01°14' E 103°41'0 0.1
2017-Sep-15 22:25N 01°14' E 103°42'0 0.1
2017-Sep-15 21:58N 01°14' E 103°41'0 0.0
2017-Sep-15 21:22N 01°14' E 103°41'0 0.0
2017-Sep-15 20:58N 01°14' E 103°41'0 0.1
2017-Sep-15 20:25N 01°14' E 103°42'0 0.1
2017-Sep-15 19:58N 01°14' E 103°41'0 0.0
2017-Sep-15 19:28N 01°14' E 103°41'0 0.1
2017-Sep-15 19:00N 01°14' E 103°42'1 2.1
2017-Sep-15 18:30N 01°15' E 103°42'3 5.5
2017-Sep-15 18:00N 01°16' E 103°45'4 8.0
2017-Sep-15 17:30N 01°13' E 103°48'1 1.0
2017-Sep-15 16:58N 01°13' E 103°48'0 0.1
2017-Sep-15 16:28N 01°13' E 103°48'0 0.1
2017-Sep-15 15:52N 01°13' E 103°48'0 0.0
2017-Sep-15 15:22N 01°13' E 103°48'0 0.0
2017-Sep-15 14:52N 01°13' E 103°48'0 0.0
2017-Sep-15 14:28N 01°13' E 103°48'0 0.0
2017-Sep-15 13:58N 01°13' E 103°48'0 0.0
2017-Sep-15 13:28N 01°13' E 103°48'0 0.0
2017-Sep-15 12:58N 01°13' E 103°48'0 0.0
2017-Sep-15 12:28N 01°13' E 103°48'0 0.0
2017-Sep-15 11:58N 01°13' E 103°48'0 0.0
2017-Sep-15 11:19N 01°13' E 103°48'0 0.0
2017-Sep-15 10:52N 01°13' E 103°48'0 0.0
2017-Sep-15 10:25N 01°13' E 103°48'0 0.1
2017-Sep-15 09:49N 01°13' E 103°48'0 0.2
2017-Sep-15 09:25N 01°13' E 103°48'0 0.1
2017-Sep-15 08:55N 01°13' E 103°48'0 0.0
2017-Sep-15 08:28N 01°13' E 103°48'0 0.1
2017-Sep-15 07:46N 01°13' E 103°48'0 0.0
2017-Sep-15 07:28N 01°13' E 103°48'0 0.0
2017-Sep-15 06:58N 01°13' E 103°48'0 0.1
2017-Sep-15 06:25N 01°13' E 103°48'0 0.1
2017-Sep-15 05:58N 01°13' E 103°48'0 0.0
2017-Sep-15 05:28N 01°13' E 103°48'0 0.0
2017-Sep-15 04:55N 01°13' E 103°48'0 0.0
2017-Sep-15 04:28N 01°13' E 103°48'0 0.1
2017-Sep-15 03:58N 01°13' E 103°48'0 0.1
2017-Sep-15 03:25N 01°13' E 103°48'0 0.0
2017-Sep-15 02:58N 01°13' E 103°48'0 0.1
2017-Sep-15 02:19N 01°13' E 103°48'0 0.0
2017-Sep-15 01:55N 01°13' E 103°48'0 0.2
2017-Sep-15 01:22N 01°13' E 103°48'0 0.0
2017-Sep-15 00:55N 01°13' E 103°48'0 0.0
2017-Sep-15 00:25N 01°13' E 103°48'0 0.0
2017-Sep-14 23:58N 01°13' E 103°48'0 0.1
2017-Sep-14 23:22N 01°13' E 103°48'0 0.0
2017-Sep-14 22:58N 01°13' E 103°48'0 0.1
2017-Sep-14 22:16N 01°13' E 103°48'0 0.0
2017-Sep-14 21:58N 01°13' E 103°48'0 0.0
2017-Sep-14 21:28N 01°13' E 103°48'0 0.1
2017-Sep-14 20:55N 01°13' E 103°48'0 0.0
2017-Sep-14 20:16N 01°13' E 103°48'0 0.0
2017-Sep-14 19:58N 01°13' E 103°48'0 0.1
2017-Sep-14 19:22N 01°13' E 103°48'0 0.0
2017-Sep-14 18:58N 01°13' E 103°48'0 0.0
2017-Sep-14 18:16N 01°13' E 103°48'0 0.0
2017-Sep-14 17:58N 01°13' E 103°48'0 0.0
2017-Sep-14 17:16N 01°13' E 103°48'0 0.0
2017-Sep-14 16:58N 01°13' E 103°48'0 0.0
2017-Sep-14 16:22N 01°13' E 103°48'0 0.0
2017-Sep-14 15:58N 01°13' E 103°48'0 0.1
2017-Sep-14 15:28N 01°13' E 103°48'0 0.0
2017-Sep-14 14:58N 01°13' E 103°48'0 0.0
2017-Sep-14 14:28N 01°13' E 103°48'0 0.0
2017-Sep-14 13:58N 01°13' E 103°48'0 0.0
2017-Sep-14 13:28N 01°13' E 103°48'0 0.0
2017-Sep-14 12:58N 01°13' E 103°48'0 0.0
2017-Sep-14 12:28N 01°13' E 103°48'0 0.0
2017-Sep-14 11:49N 01°13' E 103°48'0 0.0
2017-Sep-14 11:22N 01°13' E 103°48'0 0.1
2017-Sep-14 10:46N 01°13' E 103°48'0 0.0
2017-Sep-14 10:28N 01°13' E 103°48'0 0.0
2017-Sep-14 09:40N 01°13' E 103°48'0 0.1
2017-Sep-14 08:31N 01°13' E 103°48'0 0.0
2017-Sep-14 06:52N 01°13' E 103°48'0 0.1
2017-Sep-14 06:22N 01°13' E 103°48'0 0.0
2017-Sep-14 05:58N 01°13' E 103°48'0 0.0
2017-Sep-14 05:28N 01°13' E 103°48'0 0.0
2017-Sep-14 04:58N 01°13' E 103°48'0 0.1
2017-Sep-14 04:28N 01°13' E 103°48'0 0.1
2017-Sep-14 03:58N 01°13' E 103°48'0 0.1
2017-Sep-14 03:22N 01°13' E 103°48'0 0.0
2017-Sep-14 02:58N 01°13' E 103°48'0 0.0
2017-Sep-14 02:28N 01°13' E 103°48'0 0.0
2017-Sep-14 01:52N 01°13' E 103°48'0 0.0
2017-Sep-14 01:28N 01°13' E 103°48'0 0.0
2017-Sep-14 00:46N 01°13' E 103°48'0 0.0
2017-Sep-14 00:28N 01°13' E 103°48'0 0.0
2017-Sep-13 23:46N 01°13' E 103°48'0 0.0
2017-Sep-13 23:28N 01°13' E 103°48'0 0.1
2017-Sep-13 22:58N 01°13' E 103°48'0 0.1
2017-Sep-13 22:28N 01°13' E 103°48'0 0.0
2017-Sep-13 21:58N 01°13' E 103°48'0 0.0
2017-Sep-13 21:22N 01°13' E 103°48'0 0.0
2017-Sep-13 20:40N 01°13' E 103°48'0 0.0
2017-Sep-13 20:25N 01°13' E 103°48'0 0.1
2017-Sep-13 19:52N 01°13' E 103°48'0 0.0
2017-Sep-13 19:16N 01°13' E 103°48'0 0.1
2017-Sep-13 19:00N 01°13' E 103°48'2 4.7
2017-Sep-13 18:29N 01°13' E 103°51'612.2
2017-Sep-13 18:00N 01°15' E 103°56'5 7.8
2017-Sep-13 17:21N 01°16' E 104°01'  
Track history (hours):
 
Tides and Currents Weather Stations Pressure Air Temp Water Temp Dewpoint Dewpoint Depression Visibility Wind Speed Wind Dir Waves Ship Positions

Akane

Last reported at 2017-Sep-19 06:21 UTC. Time now 2017-Oct-18 13:24 UTC.
Position S 05°24' E 112°47'.
Warning: this ship's position is 29 days out of date.

Length 180 m; draft 9.5 m.

Type: Ship. MMSI: 353172000.

Date/timePositionNaut miles runAvg speedWind from/ knotsBaromVisibWave heightAir tempDewpointWater temp
2017-Sep-19 06:21S 05°24' E 112°47'5513.6
2017-Sep-19 02:21S 05°06' E 111°55'1313.8
2017-Sep-19 01:24S 05°01' E 111°43'59612.1
2017-Sep-17 00:18N 01°14' E 103°60'412.7
2017-Sep-17 00:00N 01°13' E 103°56'612.6
2017-Sep-16 23:30N 01°11' E 103°50'612.1
2017-Sep-16 23:00N 01°07' E 103°45'611.4
2017-Sep-16 22:30N 01°04' E 103°41'5 9.7
2017-Sep-16 22:00N 01°05' E 103°36'5 9.6
2017-Sep-16 21:30N 01°08' E 103°33'5 8.6
2017-Sep-16 20:56N 01°11' E 103°36'3 7.3
2017-Sep-16 20:30N 01°12' E 103°39'3 6.3
2017-Sep-16 20:00N 01°14' E 103°42'0 0.6
2017-Sep-16 19:22N 01°14' E 103°41'0 0.0
2017-Sep-16 18:58N 01°14' E 103°41'0 0.0
2017-Sep-16 18:28N 01°14' E 103°41'0 0.0
2017-Sep-16 17:55N 01°14' E 103°41'0 0.0
2017-Sep-16 17:28N 01°14' E 103°41'0 0.0
2017-Sep-16 16:58N 01°14' E 103°41'0 0.0
2017-Sep-16 16:28N 01°14' E 103°41'0 0.0
2017-Sep-16 15:58N 01°14' E 103°41'0 0.0
2017-Sep-16 15:28N 01°14' E 103°41'0 0.1
2017-Sep-16 14:58N 01°14' E 103°42'0 0.1
2017-Sep-16 14:22N 01°14' E 103°41'0 0.0
2017-Sep-16 13:58N 01°14' E 103°41'0 0.0
2017-Sep-16 13:22N 01°14' E 103°41'0 0.0
2017-Sep-16 12:55N 01°14' E 103°41'0 0.0
2017-Sep-16 12:16N 01°14' E 103°41'0 0.0
2017-Sep-16 11:52N 01°14' E 103°41'0 0.0
2017-Sep-16 11:28N 01°14' E 103°41'0 0.0
2017-Sep-16 10:58N 01°14' E 103°41'0 0.0
2017-Sep-16 10:25N 01°14' E 103°41'0 0.1
2017-Sep-16 09:55N 01°14' E 103°42'0 0.1
2017-Sep-16 09:25N 01°14' E 103°41'0 0.0
2017-Sep-16 08:58N 01°14' E 103°41'0 0.0
2017-Sep-16 08:25N 01°14' E 103°41'0 0.0
2017-Sep-16 07:58N 01°14' E 103°41'0 0.0
2017-Sep-16 07:28N 01°14' E 103°41'0 0.0
2017-Sep-16 06:49N 01°14' E 103°41'0 0.1
2017-Sep-16 06:25N 01°14' E 103°42'0 0.1
2017-Sep-16 05:58N 01°14' E 103°41'0 0.0
2017-Sep-16 05:28N 01°14' E 103°41'0 0.0
2017-Sep-16 04:55N 01°14' E 103°41'0 0.0
2017-Sep-16 04:25N 01°14' E 103°41'0 0.1
2017-Sep-16 03:52N 01°14' E 103°42'0 0.2
2017-Sep-16 03:28N 01°14' E 103°41'0 0.0
2017-Sep-16 02:58N 01°14' E 103°41'0 0.0
2017-Sep-16 02:25N 01°14' E 103°41'0 0.1
2017-Sep-16 01:58N 01°14' E 103°42'0 0.0
2017-Sep-16 01:19N 01°14' E 103°42'0 0.1
2017-Sep-16 00:49N 01°14' E 103°41'0 0.1
2017-Sep-16 00:22N 01°14' E 103°42'0 0.2
2017-Sep-15 23:58N 01°14' E 103°41'0 0.0
2017-Sep-15 23:25N 01°14' E 103°41'0 0.0
2017-Sep-15 22:52N 01°14' E 103°41'0 0.1
2017-Sep-15 22:25N 01°14' E 103°42'0 0.1
2017-Sep-15 21:58N 01°14' E 103°41'0 0.0
2017-Sep-15 21:22N 01°14' E 103°41'0 0.0
2017-Sep-15 20:58N 01°14' E 103°41'0 0.1
2017-Sep-15 20:25N 01°14' E 103°42'0 0.1
2017-Sep-15 19:58N 01°14' E 103°41'0 0.0
2017-Sep-15 19:28N 01°14' E 103°41'0 0.1
2017-Sep-15 19:00N 01°14' E 103°42'1 2.1
2017-Sep-15 18:30N 01°15' E 103°42'3 5.5
2017-Sep-15 18:00N 01°16' E 103°45'4 8.0
2017-Sep-15 17:30N 01°13' E 103°48'1 1.0
2017-Sep-15 16:58N 01°13' E 103°48'0 0.1
2017-Sep-15 16:28N 01°13' E 103°48'0 0.1
2017-Sep-15 15:52N 01°13' E 103°48'0 0.0
2017-Sep-15 15:22N 01°13' E 103°48'0 0.0
2017-Sep-15 14:52N 01°13' E 103°48'0 0.0
2017-Sep-15 14:28N 01°13' E 103°48'0 0.0
2017-Sep-15 13:58N 01°13' E 103°48'0 0.0
2017-Sep-15 13:28N 01°13' E 103°48'0 0.0
2017-Sep-15 12:58N 01°13' E 103°48'0 0.0
2017-Sep-15 12:28N 01°13' E 103°48'0 0.0
2017-Sep-15 11:58N 01°13' E 103°48'0 0.0
2017-Sep-15 11:19N 01°13' E 103°48'0 0.0
2017-Sep-15 10:52N 01°13' E 103°48'0 0.0
2017-Sep-15 10:25N 01°13' E 103°48'0 0.1
2017-Sep-15 09:49N 01°13' E 103°48'0 0.2
2017-Sep-15 09:25N 01°13' E 103°48'0 0.1
2017-Sep-15 08:55N 01°13' E 103°48'0 0.0
2017-Sep-15 08:28N 01°13' E 103°48'0 0.1
2017-Sep-15 07:46N 01°13' E 103°48'0 0.0
2017-Sep-15 07:28N 01°13' E 103°48'0 0.0
2017-Sep-15 06:58N 01°13' E 103°48'0 0.1
2017-Sep-15 06:25N 01°13' E 103°48'0 0.1
2017-Sep-15 05:58N 01°13' E 103°48'0 0.0
2017-Sep-15 05:28N 01°13' E 103°48'0 0.0
2017-Sep-15 04:55N 01°13' E 103°48'0 0.0
2017-Sep-15 04:28N 01°13' E 103°48'0 0.1
2017-Sep-15 03:58N 01°13' E 103°48'0 0.1
2017-Sep-15 03:25N 01°13' E 103°48'0 0.0
2017-Sep-15 02:58N 01°13' E 103°48'0 0.1
2017-Sep-15 02:19N 01°13' E 103°48'0 0.0
2017-Sep-15 01:55N 01°13' E 103°48'0 0.2
2017-Sep-15 01:22N 01°13' E 103°48'0 0.0
2017-Sep-15 00:55N 01°13' E 103°48'0 0.0
2017-Sep-15 00:25N 01°13' E 103°48'0 0.0
2017-Sep-14 23:58N 01°13' E 103°48'0 0.1
2017-Sep-14 23:22N 01°13' E 103°48'0 0.0
2017-Sep-14 22:58N 01°13' E 103°48'0 0.1
2017-Sep-14 22:16N 01°13' E 103°48'0 0.0
2017-Sep-14 21:58N 01°13' E 103°48'0 0.0
2017-Sep-14 21:28N 01°13' E 103°48'0 0.1
2017-Sep-14 20:55N 01°13' E 103°48'0 0.0
2017-Sep-14 20:16N 01°13' E 103°48'0 0.0
2017-Sep-14 19:58N 01°13' E 103°48'0 0.1
2017-Sep-14 19:22N 01°13' E 103°48'0 0.0
2017-Sep-14 18:58N 01°13' E 103°48'0 0.0
2017-Sep-14 18:16N 01°13' E 103°48'0 0.0
2017-Sep-14 17:58N 01°13' E 103°48'0 0.0
2017-Sep-14 17:16N 01°13' E 103°48'0 0.0
2017-Sep-14 16:58N 01°13' E 103°48'0 0.0
2017-Sep-14 16:22N 01°13' E 103°48'0 0.0
2017-Sep-14 15:58N 01°13' E 103°48'0 0.1
2017-Sep-14 15:28N 01°13' E 103°48'0 0.0
2017-Sep-14 14:58N 01°13' E 103°48'0 0.0
2017-Sep-14 14:28N 01°13' E 103°48'0 0.0
2017-Sep-14 13:58N 01°13' E 103°48'0 0.0
2017-Sep-14 13:28N 01°13' E 103°48'0 0.0
2017-Sep-14 12:58N 01°13' E 103°48'0 0.0
2017-Sep-14 12:28N 01°13' E 103°48'0 0.0
2017-Sep-14 11:49N 01°13' E 103°48'0 0.0
2017-Sep-14 11:22N 01°13' E 103°48'0 0.1
2017-Sep-14 10:46N 01°13' E 103°48'0 0.0
2017-Sep-14 10:28N 01°13' E 103°48'0 0.0
2017-Sep-14 09:40N 01°13' E 103°48'0 0.1
2017-Sep-14 08:31N 01°13' E 103°48'0 0.0
2017-Sep-14 06:52N 01°13' E 103°48'0 0.1
2017-Sep-14 06:22N 01°13' E 103°48'0 0.0
2017-Sep-14 05:58N 01°13' E 103°48'0 0.0
2017-Sep-14 05:28N 01°13' E 103°48'0 0.0
2017-Sep-14 04:58N 01°13' E 103°48'0 0.1
2017-Sep-14 04:28N 01°13' E 103°48'0 0.1
2017-Sep-14 03:58N 01°13' E 103°48'0 0.1
2017-Sep-14 03:22N 01°13' E 103°48'0 0.0
2017-Sep-14 02:58N 01°13' E 103°48'0 0.0
2017-Sep-14 02:28N 01°13' E 103°48'0 0.0
2017-Sep-14 01:52N 01°13' E 103°48'0 0.0
2017-Sep-14 01:28N 01°13' E 103°48'0 0.0
2017-Sep-14 00:46N 01°13' E 103°48'0 0.0
2017-Sep-14 00:28N 01°13' E 103°48'0 0.0
2017-Sep-13 23:46N 01°13' E 103°48'0 0.0
2017-Sep-13 23:28N 01°13' E 103°48'0 0.1
2017-Sep-13 22:58N 01°13' E 103°48'0 0.1
2017-Sep-13 22:28N 01°13' E 103°48'0 0.0
2017-Sep-13 21:58N 01°13' E 103°48'0 0.0
2017-Sep-13 21:22N 01°13' E 103°48'0 0.0
2017-Sep-13 20:40N 01°13' E 103°48'0 0.0
2017-Sep-13 20:25N 01°13' E 103°48'0 0.1
2017-Sep-13 19:52N 01°13' E 103°48'0 0.0
2017-Sep-13 19:16N 01°13' E 103°48'0 0.1
2017-Sep-13 19:00N 01°13' E 103°48'2 4.7
2017-Sep-13 18:29N 01°13' E 103°51'612.2
2017-Sep-13 18:00N 01°15' E 103°56'5 7.8
2017-Sep-13 17:21N 01°16' E 104°01'  

Dump ship's entire track history